createdAt,value
2022-10-14T00:00:02.473Z,0
2022-10-14T00:01:03.433Z,0
2022-10-14T00:02:04.336Z,0
2022-10-14T00:03:05.035Z,0
2022-10-14T00:04:05.690Z,0
2022-10-14T00:05:06.443Z,0
2022-10-14T00:06:07.728Z,0
2022-10-14T00:07:07.661Z,0
2022-10-14T00:08:08.302Z,0
2022-10-14T00:09:09.214Z,0
2022-10-14T00:10:09.407Z,0
2022-10-14T00:11:10.323Z,0
2022-10-14T00:12:11.212Z,0
2022-10-14T00:13:10.898Z,0
2022-10-14T00:14:11.852Z,0
2022-10-14T00:15:12.129Z,0
2022-10-14T00:16:13.067Z,0
2022-10-14T00:17:13.790Z,0
2022-10-14T00:18:14.768Z,0
2022-10-14T00:19:14.387Z,0
2022-10-14T00:20:15.003Z,0
2022-10-14T00:21:15.334Z,0
2022-10-14T00:22:15.952Z,0
2022-10-14T00:23:17.141Z,0
2022-10-14T00:24:17.777Z,0
2022-10-14T00:25:17.909Z,0
2022-10-14T00:26:18.524Z,0
2022-10-14T00:27:19.091Z,0
2022-10-14T00:28:20.264Z,0
2022-10-14T00:29:20.608Z,0
2022-10-14T00:30:20.816Z,0
2022-10-14T00:31:21.495Z,0
2022-10-14T00:32:22.689Z,0
2022-10-14T00:33:23.029Z,0
2022-10-14T00:34:23.940Z,0
2022-10-14T00:35:25.004Z,0
2022-10-14T00:36:25.355Z,0
2022-10-14T00:37:27.065Z,0
2022-10-14T00:38:26.277Z,0
2022-10-14T00:39:26.586Z,0
2022-10-14T00:40:27.494Z,0
2022-10-14T00:41:28.107Z,0
2022-10-14T00:42:28.019Z,0
2022-10-14T00:43:29.507Z,0
2022-10-14T00:44:30.461Z,0
2022-10-14T00:45:30.485Z,0
2022-10-14T00:46:31.402Z,0
2022-10-14T00:47:32.403Z,0
2022-10-14T00:48:33.300Z,0
2022-10-14T00:49:33.513Z,0
2022-10-14T00:50:34.108Z,0
2022-10-14T00:51:35.032Z,0
2022-10-14T00:52:35.953Z,0
2022-10-14T00:53:36.156Z,0
2022-10-14T00:54:37.353Z,0
2022-10-14T00:55:37.749Z,0
2022-10-14T00:56:38.684Z,0
2022-10-14T00:57:39.881Z,0
2022-10-14T00:58:39.774Z,0
2022-10-14T00:59:40.999Z,0
2022-10-14T01:00:41.187Z,0
2022-10-14T01:01:41.979Z,0
2022-10-14T01:02:43.163Z,0
2022-10-14T01:03:44.065Z,0
2022-10-14T01:04:45.279Z,0
2022-10-14T01:05:45.020Z,0
2022-10-14T01:06:46.215Z,0
2022-10-14T01:07:46.836Z,0
2022-10-14T01:08:47.718Z,0
2022-10-14T01:09:48.362Z,0
2022-10-14T01:10:48.988Z,0
2022-10-14T01:12:00.247Z,0
2022-10-14T01:12:50.185Z,0
2022-10-14T01:13:51.474Z,0
2022-10-14T01:14:52.737Z,0
2022-10-14T01:15:53.323Z,0
2022-10-14T01:16:53.280Z,0
2022-10-14T01:17:53.463Z,0
2022-10-14T01:18:54.377Z,0
2022-10-14T01:19:55.290Z,0
2022-10-14T01:20:55.199Z,0
2022-10-14T01:21:55.535Z,0
2022-10-14T01:22:57.037Z,0
2022-10-14T01:23:57.228Z,0
2022-10-14T01:24:57.444Z,0
2022-10-14T01:25:58.117Z,0
2022-10-14T01:26:58.025Z,0
2022-10-14T01:27:58.667Z,0
2022-10-14T01:28:59.889Z,0
2022-10-14T01:30:01.200Z,0
2022-10-14T01:31:01.102Z,0
2022-10-14T01:32:02.055Z,0
2022-10-14T01:33:02.973Z,0
2022-10-14T01:34:04.184Z,0
2022-10-14T01:35:04.094Z,0
2022-10-14T01:36:04.525Z,0
2022-10-14T01:37:05.178Z,0
2022-10-14T01:38:06.070Z,0
2022-10-14T01:39:06.966Z,0
2022-10-14T01:40:07.860Z,0
2022-10-14T01:41:07.774Z,0
2022-10-14T01:42:08.684Z,0
2022-10-14T01:43:09.301Z,0
2022-10-14T01:44:10.214Z,0
2022-10-14T01:45:11.444Z,0
2022-10-14T01:46:11.471Z,0
2022-10-14T01:47:11.858Z,0
2022-10-14T01:48:12.499Z,0
2022-10-14T01:49:13.114Z,0
2022-10-14T01:50:14.307Z,0
2022-10-14T01:51:14.789Z,0
2022-10-14T01:52:15.408Z,0
2022-10-14T01:53:15.441Z,0
2022-10-14T01:54:16.357Z,0
2022-10-14T01:55:16.273Z,0
2022-10-14T01:56:17.271Z,0
2022-10-14T01:57:17.461Z,0
2022-10-14T01:58:17.797Z,0
2022-10-14T01:59:18.408Z,0
2022-10-14T02:00:19.643Z,0
2022-10-14T02:01:20.169Z,0
2022-10-14T02:02:20.593Z,0
2022-10-14T02:03:20.724Z,0
2022-10-14T02:04:21.340Z,0
2022-10-14T02:05:22.586Z,0
2022-10-14T02:06:22.309Z,0
2022-10-14T02:07:22.645Z,0
2022-10-14T02:08:23.564Z,0
2022-10-14T02:09:24.837Z,0
2022-10-14T02:10:25.750Z,0
2022-10-14T02:11:26.364Z,0
2022-10-14T02:12:27.633Z,0
2022-10-14T02:13:27.563Z,0
2022-10-14T02:14:27.605Z,0
2022-10-14T02:15:29.136Z,0
2022-10-14T02:16:29.450Z,0
2022-10-14T02:17:29.403Z,0
2022-10-14T02:18:29.098Z,0
2022-10-14T02:19:29.713Z,0
2022-10-14T02:20:30.648Z,0
2022-10-14T02:21:30.858Z,0
2022-10-14T02:22:31.767Z,0
2022-10-14T02:23:32.113Z,0
2022-10-14T02:24:33.312Z,0
2022-10-14T02:25:33.203Z,0
2022-10-14T02:26:33.497Z,0
2022-10-14T02:27:34.112Z,0
2022-10-14T02:28:34.697Z,0
2022-10-14T02:29:36.104Z,0
2022-10-14T02:30:37.488Z,0
2022-10-14T02:31:37.420Z,0
2022-10-14T02:32:37.935Z,0
2022-10-14T02:33:38.130Z,0
2022-10-14T02:34:38.350Z,0
2022-10-14T02:35:39.261Z,0
2022-10-14T02:36:39.688Z,0
2022-10-14T02:37:40.175Z,0
2022-10-14T02:38:39.807Z,0
2022-10-14T02:39:40.446Z,0
2022-10-14T02:40:41.655Z,0
2022-10-14T02:41:41.569Z,0
2022-10-14T02:42:41.613Z,0
2022-10-14T02:43:42.564Z,0
2022-10-14T02:44:43.487Z,0
2022-10-14T02:45:44.040Z,0
2022-10-14T02:46:44.042Z,0
2022-10-14T02:47:45.002Z,0
2022-10-14T02:48:45.201Z,0
2022-10-14T02:49:45.699Z,0
2022-10-14T02:50:45.619Z,0
2022-10-14T02:51:46.098Z,0
2022-10-14T02:52:46.714Z,0
2022-10-14T02:53:47.304Z,0
2022-10-14T02:54:48.795Z,0
2022-10-14T02:55:48.118Z,0
2022-10-14T02:56:49.097Z,0
2022-10-14T02:57:50.034Z,0
2022-10-14T02:58:51.242Z,0
2022-10-14T02:59:51.430Z,0
2022-10-14T03:00:52.671Z,0
2022-10-14T03:01:52.802Z,0
2022-10-14T03:02:52.920Z,0
2022-10-14T03:03:53.842Z,0
2022-10-14T03:04:54.437Z,0
2022-10-14T03:05:55.626Z,0
2022-10-14T03:06:56.131Z,0
2022-10-14T03:07:57.324Z,0
2022-10-14T03:08:57.961Z,0
2022-10-14T03:09:59.159Z,0
2022-10-14T03:10:58.799Z,0
2022-10-14T03:11:59.412Z,0
2022-10-14T03:13:00.617Z,0
2022-10-14T03:14:01.249Z,0
2022-10-14T03:15:02.151Z,0
2022-10-14T03:16:03.421Z,0
2022-10-14T03:17:03.417Z,0
2022-10-14T03:18:03.758Z,0
2022-10-14T03:19:05.055Z,0
2022-10-14T03:20:04.972Z,0
2022-10-14T03:21:05.572Z,0
2022-10-14T03:22:06.486Z,0
2022-10-14T03:23:07.420Z,0
2022-10-14T03:24:08.037Z,0
2022-10-14T03:25:08.674Z,0
2022-10-14T03:26:13.148Z,0
2022-10-14T03:27:09.799Z,0
2022-10-14T03:28:10.697Z,0
2022-10-14T03:29:12.017Z,0
2022-10-14T03:30:12.207Z,0
2022-10-14T03:31:13.453Z,0
2022-10-14T03:32:13.679Z,0
2022-10-14T03:33:20.474Z,0
2022-10-14T03:34:14.937Z,0
2022-10-14T03:35:16.127Z,0
2022-10-14T03:36:16.043Z,0
2022-10-14T03:37:16.473Z,0
2022-10-14T03:38:16.388Z,0
2022-10-14T03:39:17.592Z,0
2022-10-14T03:40:18.511Z,0
2022-10-14T03:41:19.428Z,0
2022-10-14T03:42:20.055Z,0
2022-10-14T03:43:21.177Z,0
2022-10-14T03:44:21.796Z,0
2022-10-14T03:45:21.982Z,0
2022-10-14T03:46:22.511Z,0
2022-10-14T03:47:22.237Z,0
2022-10-14T03:48:23.451Z,0
2022-10-14T03:49:24.359Z,0
2022-10-14T03:50:24.998Z,0
2022-10-14T03:51:25.343Z,0
2022-10-14T03:52:27.168Z,0
2022-10-14T03:53:26.803Z,0
2022-10-14T03:54:27.714Z,0
2022-10-14T03:55:27.901Z,0
2022-10-14T03:56:28.814Z,0
2022-10-14T03:57:29.097Z,0
2022-10-14T03:58:30.032Z,0
2022-10-14T03:59:30.953Z,0
2022-10-14T04:00:31.576Z,0
2022-10-14T04:01:33.209Z,0
2022-10-14T04:02:34.307Z,0
2022-10-14T04:03:33.659Z,0
2022-10-14T04:04:34.845Z,0
2022-10-14T04:05:36.055Z,0
2022-10-14T04:06:35.977Z,0
2022-10-14T04:07:37.264Z,0
2022-10-14T04:08:38.484Z,0
2022-10-14T04:09:38.390Z,0
2022-10-14T04:10:39.307Z,0
2022-10-14T04:11:39.626Z,0
2022-10-14T04:12:39.941Z,0
2022-10-14T04:13:40.575Z,0
2022-10-14T04:14:41.512Z,0
2022-10-14T04:15:42.704Z,0
2022-10-14T04:16:48.803Z,0
2022-10-14T04:17:43.902Z,0
2022-10-14T04:18:43.549Z,0
2022-10-14T04:19:44.547Z,0
2022-10-14T04:20:45.164Z,0
2022-10-14T04:21:45.488Z,0
2022-10-14T04:22:46.683Z,0
2022-10-14T04:23:46.885Z,0
2022-10-14T04:24:47.481Z,0
2022-10-14T04:25:48.673Z,0
2022-10-14T04:26:49.287Z,0
2022-10-14T04:27:50.357Z,0
2022-10-14T04:28:51.853Z,0
2022-10-14T04:29:51.920Z,0
2022-10-14T04:30:53.406Z,0
2022-10-14T04:31:54.353Z,0
2022-10-14T04:32:54.862Z,0
2022-10-14T04:33:55.082Z,0
2022-10-14T04:34:55.258Z,0
2022-10-14T04:35:55.176Z,0
2022-10-14T04:36:55.491Z,0
2022-10-14T04:37:56.231Z,0
2022-10-14T04:38:57.427Z,0
2022-10-14T04:39:57.629Z,0
2022-10-14T04:40:58.222Z,0
2022-10-14T04:41:58.540Z,0
2022-10-14T04:42:59.448Z,0
2022-10-14T04:44:00.693Z,0
2022-10-14T04:45:01.603Z,0
2022-10-14T04:46:02.794Z,0
2022-10-14T04:47:03.409Z,0
2022-10-14T04:48:03.611Z,0
2022-10-14T04:49:04.848Z,0
2022-10-14T04:50:05.334Z,0
2022-10-14T04:51:04.685Z,0
2022-10-14T04:52:05.619Z,0
2022-10-14T04:53:08.530Z,0
2022-10-14T04:54:06.523Z,0
2022-10-14T04:55:06.863Z,0
2022-10-14T04:56:08.084Z,0
2022-10-14T04:57:08.430Z,0
2022-10-14T04:58:09.423Z,0
2022-10-14T04:59:09.915Z,0
2022-10-14T05:00:09.830Z,0
2022-10-14T05:01:09.719Z,0
2022-10-14T05:02:11.454Z,0
2022-10-14T05:03:10.516Z,0
2022-10-14T05:04:11.477Z,0
2022-10-14T05:05:12.099Z,0
2022-10-14T05:06:13.586Z,0
2022-10-14T05:07:13.924Z,0
2022-10-14T05:08:14.647Z,0
2022-10-14T05:09:15.849Z,0
2022-10-14T05:10:15.760Z,0
2022-10-14T05:11:16.674Z,0
2022-10-14T05:12:17.009Z,0
2022-10-14T05:13:17.512Z,4
2022-10-14T05:14:18.728Z,4
2022-10-14T05:15:19.362Z,0
2022-10-14T05:16:19.576Z,0
2022-10-14T05:17:20.823Z,4
2022-10-14T05:18:21.258Z,4
2022-10-14T05:19:21.637Z,4
2022-10-14T05:20:22.814Z,4
2022-10-14T05:21:23.150Z,4
2022-10-14T05:22:24.691Z,4
2022-10-14T05:23:24.382Z,4
2022-10-14T05:24:24.279Z,8
2022-10-14T05:25:24.984Z,8
2022-10-14T05:26:25.318Z,12
2022-10-14T05:27:25.927Z,12
2022-10-14T05:28:26.884Z,12
2022-10-14T05:29:27.272Z,16
2022-10-14T05:30:32.269Z,16
2022-10-14T05:31:28.747Z,20
2022-10-14T05:32:30.634Z,20
2022-10-14T05:33:30.546Z,24
2022-10-14T05:34:31.212Z,28
2022-10-14T05:36:05.272Z,32
2022-10-14T05:36:31.605Z,32
2022-10-14T05:37:32.824Z,36
2022-10-14T05:38:33.813Z,40
2022-10-14T05:39:34.724Z,40
2022-10-14T05:40:35.218Z,44
2022-10-14T05:41:35.139Z,48
2022-10-14T05:42:35.677Z,56
2022-10-14T05:43:40.495Z,60
2022-10-14T05:44:36.715Z,68
2022-10-14T05:45:36.333Z,76
2022-10-14T05:46:36.945Z,80
2022-10-14T05:47:38.192Z,84
2022-10-14T05:48:39.065Z,92
2022-10-14T05:49:38.927Z,96
2022-10-14T05:50:39.276Z,108
2022-10-14T05:51:39.667Z,116
2022-10-14T05:52:45.181Z,120
2022-10-14T05:53:40.796Z,128
2022-10-14T05:54:41.168Z,132
2022-10-14T05:55:42.367Z,140
2022-10-14T05:56:42.303Z,152
2022-10-14T05:57:43.800Z,164
2022-10-14T05:58:44.188Z,164
2022-10-14T05:59:44.384Z,168
2022-10-14T06:00:45.310Z,164
2022-10-14T06:01:45.951Z,160
2022-10-14T06:02:47.641Z,156
2022-10-14T06:03:47.972Z,152
2022-10-14T06:04:47.941Z,152
2022-10-14T06:05:48.545Z,156
2022-10-14T06:06:49.469Z,156
2022-10-14T06:07:49.859Z,160
2022-10-14T06:08:50.159Z,168
2022-10-14T06:09:51.056Z,176
2022-10-14T06:10:51.397Z,188
2022-10-14T06:11:52.592Z,192
2022-10-14T06:12:52.534Z,192
2022-10-14T06:13:53.728Z,200
2022-10-14T06:14:53.628Z,208
2022-10-14T06:15:54.527Z,212
2022-10-14T06:16:54.871Z,212
2022-10-14T06:17:56.411Z,216
2022-10-14T06:19:00.011Z,220
2022-10-14T06:19:56.954Z,212
2022-10-14T06:20:58.229Z,216
2022-10-14T06:21:58.844Z,224
2022-10-14T06:23:00.341Z,240
2022-10-14T06:24:01.260Z,260
2022-10-14T06:25:04.569Z,272
2022-10-14T06:26:01.629Z,272
2022-10-14T06:27:02.124Z,276
2022-10-14T06:28:02.338Z,284
2022-10-14T06:29:03.523Z,300
2022-10-14T06:30:03.491Z,324
2022-10-14T06:31:04.111Z,352
2022-10-14T06:32:05.299Z,384
2022-10-14T06:33:06.527Z,420
2022-10-14T06:34:06.441Z,456
2022-10-14T06:35:07.148Z,472
2022-10-14T06:36:07.058Z,480
2022-10-14T06:37:13.203Z,472
2022-10-14T06:38:08.843Z,472
2022-10-14T06:39:09.236Z,500
2022-10-14T06:40:09.871Z,548
2022-10-14T06:41:10.782Z,596
2022-10-14T06:42:18.811Z,640
2022-10-14T06:43:12.077Z,652
2022-10-14T06:44:12.673Z,676
2022-10-14T06:45:13.292Z,704
2022-10-14T06:46:13.905Z,716
2022-10-14T06:47:14.823Z,700
2022-10-14T06:48:15.080Z,684
2022-10-14T06:49:15.391Z,688
2022-10-14T06:50:15.738Z,704
2022-10-14T06:51:17.216Z,724
2022-10-14T06:52:17.839Z,756
2022-10-14T06:53:18.307Z,832
2022-10-14T06:54:19.253Z,840
2022-10-14T06:55:19.902Z,840
2022-10-14T06:56:19.950Z,876
2022-10-14T06:57:21.162Z,988
2022-10-14T06:58:21.657Z,1112
2022-10-14T06:59:22.393Z,1432
2022-10-14T07:00:23.307Z,892
2022-10-14T07:01:23.453Z,816
2022-10-14T07:02:24.142Z,808
2022-10-14T07:03:25.019Z,800
2022-10-14T07:04:24.938Z,796
2022-10-14T07:05:25.308Z,776
2022-10-14T07:06:26.792Z,756
2022-10-14T07:07:27.020Z,752
2022-10-14T07:08:27.914Z,752
2022-10-14T07:09:29.218Z,768
2022-10-14T07:10:28.979Z,788
2022-10-14T07:11:29.608Z,796
2022-10-14T07:12:31.351Z,812
2022-10-14T07:13:31.269Z,848
2022-10-14T07:14:32.486Z,896
2022-10-14T07:15:35.485Z,948
2022-10-14T07:16:32.706Z,984
2022-10-14T07:17:35.306Z,1024
2022-10-14T07:18:34.835Z,1052
2022-10-14T07:19:35.181Z,1056
2022-10-14T07:20:35.130Z,1076
2022-10-14T07:21:36.717Z,1136
2022-10-14T07:22:44.212Z,1236
2022-10-14T07:23:37.844Z,1440
2022-10-14T07:24:38.509Z,1696
2022-10-14T07:25:39.711Z,1600
2022-10-14T07:26:39.610Z,1564
2022-10-14T07:27:40.830Z,1736
2022-10-14T07:28:41.380Z,1820
2022-10-14T07:29:41.507Z,3200
2022-10-14T07:30:41.832Z,3520
2022-10-14T07:31:43.055Z,4796
2022-10-14T07:32:43.555Z,4808
2022-10-14T07:33:44.292Z,4416
2022-10-14T07:34:43.924Z,4388
2022-10-14T07:35:44.599Z,4476
2022-10-14T07:36:44.788Z,3796
2022-10-14T07:37:45.711Z,2892
2022-10-14T07:38:46.226Z,3104
2022-10-14T07:39:46.268Z,3712
2022-10-14T07:40:46.613Z,3712
2022-10-14T07:41:47.233Z,3976
2022-10-14T07:42:48.147Z,4672
2022-10-14T07:43:48.367Z,5176
2022-10-14T07:44:49.302Z,5428
2022-10-14T07:45:48.647Z,4628
2022-10-14T07:46:49.568Z,3308
2022-10-14T07:47:50.327Z,2440
2022-10-14T07:49:07.708Z,2248
2022-10-14T07:49:56.193Z,2684
2022-10-14T07:50:57.418Z,2632
2022-10-14T07:51:57.906Z,2484
2022-10-14T07:53:01.488Z,2552
2022-10-14T07:53:58.518Z,2604
2022-10-14T07:54:59.147Z,3400
2022-10-14T07:55:59.647Z,4644
2022-10-14T07:56:59.572Z,5192
2022-10-14T07:57:59.777Z,6064
2022-10-14T07:59:00.403Z,6952
2022-10-14T08:00:01.467Z,6692
2022-10-14T08:01:02.428Z,5088
2022-10-14T08:02:03.384Z,4576
2022-10-14T08:03:03.703Z,3424
2022-10-14T08:04:04.084Z,3820
2022-10-14T08:05:43.666Z,4804
2022-10-14T08:06:05.978Z,5368
2022-10-14T08:07:06.899Z,5960
2022-10-14T08:08:06.904Z,6128
2022-10-14T08:09:07.576Z,5520
2022-10-14T08:10:08.359Z,4124
2022-10-14T08:11:08.715Z,3428
2022-10-14T08:12:09.938Z,3724
2022-10-14T08:13:10.435Z,2860
2022-10-14T08:14:10.361Z,2120
2022-10-14T08:15:11.568Z,1952
2022-10-14T08:16:12.579Z,1712
2022-10-14T08:17:13.457Z,1488
2022-10-14T08:18:13.763Z,1336
2022-10-14T08:19:20.548Z,2052
2022-10-14T08:20:14.556Z,2048
2022-10-14T08:21:14.603Z,3128
2022-10-14T08:22:15.347Z,2764
2022-10-14T08:23:17.443Z,4076
2022-10-14T08:24:15.446Z,3804
2022-10-14T08:25:16.643Z,3300
2022-10-14T08:26:17.593Z,3408
2022-10-14T08:27:17.525Z,3308
2022-10-14T08:28:18.100Z,4492
2022-10-14T08:29:17.830Z,5536
2022-10-14T08:30:22.598Z,6416
2022-10-14T08:31:19.830Z,4584
2022-10-14T08:32:21.120Z,5748
2022-10-14T08:33:21.187Z,8992
2022-10-14T08:34:21.854Z,11976
2022-10-14T08:35:23.073Z,9416
2022-10-14T08:36:23.341Z,6212
2022-10-14T08:37:22.970Z,4420
2022-10-14T08:38:23.617Z,6184
2022-10-14T08:39:24.868Z,8092
2022-10-14T08:40:25.306Z,6956
2022-10-14T08:41:26.510Z,4380
2022-10-14T08:42:27.727Z,4060
2022-10-14T08:43:27.222Z,4600
2022-10-14T08:44:26.856Z,6676
2022-10-14T08:45:28.356Z,6400
2022-10-14T08:46:28.517Z,4276
2022-10-14T08:47:29.443Z,3408
2022-10-14T08:48:30.376Z,2616
2022-10-14T08:49:31.328Z,2404
2022-10-14T08:50:31.381Z,2024
2022-10-14T08:51:32.024Z,1568
2022-10-14T08:52:36.570Z,1556
2022-10-14T08:53:32.613Z,1496
2022-10-14T08:54:33.293Z,1464
2022-10-14T08:55:33.933Z,1280
2022-10-14T08:56:35.160Z,1176
2022-10-14T08:57:35.209Z,1256
2022-10-14T08:58:36.857Z,1452
2022-10-14T08:59:36.517Z,1448
2022-10-14T09:00:38.121Z,1252
2022-10-14T09:01:38.503Z,1200
2022-10-14T09:02:39.454Z,1472
2022-10-14T09:03:39.428Z,1916
2022-10-14T09:04:40.606Z,2080
2022-10-14T09:05:40.811Z,3068
2022-10-14T09:06:41.780Z,4564
2022-10-14T09:07:42.112Z,3504
2022-10-14T09:08:42.826Z,3452
2022-10-14T09:09:44.055Z,3596
2022-10-14T09:10:44.592Z,5160
2022-10-14T09:11:45.712Z,4144
2022-10-14T09:12:45.672Z,3144
2022-10-14T09:13:46.020Z,2852
2022-10-14T09:14:46.924Z,2756
2022-10-14T09:15:48.147Z,2912
2022-10-14T09:16:50.391Z,3916
2022-10-14T09:17:49.430Z,3512
2022-10-14T09:18:49.783Z,2920
2022-10-14T09:19:49.896Z,2680
2022-10-14T09:20:50.924Z,2464
2022-10-14T09:22:04.264Z,2472
2022-10-14T09:23:51.827Z,2276
2022-10-14T09:24:52.789Z,2304
2022-10-14T09:25:53.414Z,2396
2022-10-14T09:26:55.100Z,2276
2022-10-14T09:27:54.559Z,2216
2022-10-14T09:28:55.946Z,2256
2022-10-14T09:29:55.990Z,2032
2022-10-14T09:30:57.614Z,2140
2022-10-14T09:31:58.256Z,2332
2022-10-14T09:32:59.182Z,2168
2022-10-14T09:33:59.634Z,1928
2022-10-14T09:35:00.868Z,1924
2022-10-14T09:36:01.044Z,1996
2022-10-14T09:37:00.774Z,1964
2022-10-14T09:38:01.764Z,2032
2022-10-14T09:39:03.658Z,2020
2022-10-14T09:40:02.718Z,2092
2022-10-14T09:41:02.735Z,2032
2022-10-14T09:42:03.631Z,1996
2022-10-14T09:43:04.130Z,1944
2022-10-14T09:44:04.070Z,2000
2022-10-14T09:45:04.349Z,2128
2022-10-14T09:46:05.129Z,2296
2022-10-14T09:47:08.115Z,2456
2022-10-14T09:48:06.958Z,2908
2022-10-14T09:49:06.876Z,3172
2022-10-14T09:50:08.362Z,3048
2022-10-14T09:51:07.822Z,3000
2022-10-14T09:52:08.550Z,2912
2022-10-14T09:53:16.467Z,2776
2022-10-14T09:54:11.003Z,2680
2022-10-14T09:55:11.227Z,2684
2022-10-14T09:56:10.986Z,2752
2022-10-14T09:57:11.444Z,2836
2022-10-14T09:58:12.375Z,2912
2022-10-14T09:59:13.581Z,3036
2022-10-14T10:00:13.508Z,3248
2022-10-14T10:01:14.234Z,3408
2022-10-14T10:02:15.327Z,3372
2022-10-14T10:03:22.458Z,3348
2022-10-14T10:04:16.956Z,3108
2022-10-14T10:05:17.457Z,3392
2022-10-14T10:06:17.416Z,3176
2022-10-14T10:07:17.351Z,3520
2022-10-14T10:08:17.676Z,5672
2022-10-14T10:09:18.935Z,4924
2022-10-14T10:10:19.161Z,5056
2022-10-14T10:11:20.175Z,4180
2022-10-14T10:12:20.084Z,4316
2022-10-14T10:13:21.063Z,3328
2022-10-14T10:14:21.722Z,3408
2022-10-14T10:15:22.106Z,3596
2022-10-14T10:16:23.041Z,3308
2022-10-14T10:17:23.846Z,4520
2022-10-14T10:18:24.603Z,3232
2022-10-14T10:19:24.537Z,2892
2022-10-14T10:20:25.472Z,2660
2022-10-14T10:21:25.955Z,2488
2022-10-14T10:22:26.770Z,2392
2022-10-14T10:23:27.411Z,2480
2022-10-14T10:24:35.679Z,2108
2022-10-14T10:25:27.306Z,2164
2022-10-14T10:26:28.506Z,3528
2022-10-14T10:27:30.468Z,2136
2022-10-14T10:28:30.618Z,2196
2022-10-14T10:29:30.041Z,2444
2022-10-14T10:30:30.675Z,2196
2022-10-14T10:31:32.453Z,2368
2022-10-14T10:32:32.619Z,2304
2022-10-14T10:33:32.553Z,1972
2022-10-14T10:34:33.456Z,1828
2022-10-14T10:35:33.972Z,1792
2022-10-14T10:36:34.605Z,1772
2022-10-14T10:37:36.214Z,1724
2022-10-14T10:38:35.911Z,1676
2022-10-14T10:39:37.129Z,1616
2022-10-14T10:40:37.608Z,1556
2022-10-14T10:41:37.472Z,1580
2022-10-14T10:42:37.695Z,1616
2022-10-14T10:43:38.328Z,1572
2022-10-14T10:44:39.554Z,1588
2022-10-14T10:45:42.650Z,1692
2022-10-14T10:46:40.554Z,1672
2022-10-14T10:47:41.177Z,1656
2022-10-14T10:48:41.804Z,1544
2022-10-14T10:49:43.044Z,1456
2022-10-14T10:50:43.073Z,1600
2022-10-14T10:51:43.825Z,2360
2022-10-14T10:52:44.448Z,3108
2022-10-14T10:53:45.689Z,2680
2022-10-14T10:54:45.650Z,5432
2022-10-14T10:56:47.271Z,2688
2022-10-14T10:57:47.214Z,3148
2022-10-14T10:58:48.134Z,2044
2022-10-14T10:59:49.365Z,1600
2022-10-14T11:00:48.717Z,1436
2022-10-14T11:01:50.442Z,1364
2022-10-14T11:02:51.074Z,1336
2022-10-14T11:03:50.979Z,1348
2022-10-14T11:04:50.906Z,1408
2022-10-14T11:05:52.134Z,1500
2022-10-14T11:06:52.056Z,1596
2022-10-14T11:07:53.558Z,1624
2022-10-14T11:08:53.505Z,1516
2022-10-14T11:09:54.715Z,1404
2022-10-14T11:10:55.534Z,1316
2022-10-14T11:11:55.935Z,1260
2022-10-14T11:12:56.835Z,1264
2022-10-14T11:13:57.745Z,1284
2022-10-14T11:14:58.667Z,1312
2022-10-14T11:15:59.176Z,1352
2022-10-14T11:16:59.184Z,1492
2022-10-14T11:17:59.972Z,1792
2022-10-14T11:19:00.585Z,2344
2022-10-14T11:20:01.251Z,3016
2022-10-14T11:21:01.769Z,3504
2022-10-14T11:22:01.815Z,4096
2022-10-14T11:23:02.748Z,3080
2022-10-14T11:24:04.131Z,3152
2022-10-14T11:25:04.401Z,2620
2022-10-14T11:26:04.046Z,2296
2022-10-14T11:27:04.951Z,2056
2022-10-14T11:28:05.871Z,1884
2022-10-14T11:29:06.450Z,1864
2022-10-14T11:30:06.970Z,2000
2022-10-14T11:31:07.200Z,1944
2022-10-14T11:32:07.969Z,1824
2022-10-14T11:33:08.934Z,1844
2022-10-14T11:34:09.153Z,1808
2022-10-14T11:35:09.832Z,1688
2022-10-14T11:36:09.819Z,1536
2022-10-14T11:37:11.321Z,1396
2022-10-14T11:38:11.260Z,1324
2022-10-14T11:39:11.618Z,1284
2022-10-14T11:40:12.245Z,1244
2022-10-14T11:41:12.923Z,1200
2022-10-14T11:42:13.744Z,1132
2022-10-14T11:43:13.673Z,1080
2022-10-14T11:44:14.320Z,1040
2022-10-14T11:45:17.288Z,1012
2022-10-14T11:46:16.282Z,1000
2022-10-14T11:47:17.364Z,976
2022-10-14T11:48:17.527Z,944
2022-10-14T11:49:18.453Z,920
2022-10-14T11:50:19.127Z,904
2022-10-14T11:51:19.785Z,900
2022-10-14T11:52:20.927Z,896
2022-10-14T11:53:21.119Z,880
2022-10-14T11:54:22.367Z,856
2022-10-14T11:55:25.549Z,836
2022-10-14T11:56:22.774Z,828
2022-10-14T11:57:23.231Z,844
2022-10-14T11:58:23.881Z,880
2022-10-14T11:59:24.106Z,920
2022-10-14T12:00:25.069Z,964
2022-10-14T12:01:25.987Z,1004
2022-10-14T12:02:27.716Z,1012
2022-10-14T12:03:27.303Z,1020
2022-10-14T12:04:27.207Z,1028
2022-10-14T12:05:28.129Z,1036
2022-10-14T12:06:28.368Z,1024
2022-10-14T12:07:29.868Z,1040
2022-10-14T12:08:31.694Z,1052
2022-10-14T12:09:31.274Z,1076
2022-10-14T12:10:31.498Z,1120
2022-10-14T12:11:31.161Z,1104
2022-10-14T12:12:32.875Z,1068
2022-10-14T12:13:33.133Z,1016
2022-10-14T12:14:34.146Z,940
2022-10-14T12:15:34.580Z,884
2022-10-14T12:16:35.509Z,860
2022-10-14T12:17:37.119Z,868
2022-10-14T12:18:37.725Z,908
2022-10-14T12:19:38.261Z,952
2022-10-14T12:20:38.621Z,968
2022-10-14T12:21:39.855Z,956
2022-10-14T12:22:40.327Z,928
2022-10-14T12:23:40.829Z,900
2022-10-14T12:24:41.138Z,888
2022-10-14T12:25:41.779Z,900
2022-10-14T12:26:42.734Z,936
2022-10-14T12:27:44.399Z,960
2022-10-14T12:28:45.290Z,964
2022-10-14T12:29:45.526Z,952
2022-10-14T12:30:46.755Z,932
2022-10-14T12:31:47.149Z,888
2022-10-14T12:32:48.134Z,816
2022-10-14T12:33:48.482Z,764
2022-10-14T12:34:49.710Z,740
2022-10-14T12:35:50.624Z,744
2022-10-14T12:36:50.892Z,748
2022-10-14T12:37:51.091Z,760
2022-10-14T12:38:52.401Z,760
2022-10-14T12:39:52.627Z,752
2022-10-14T12:40:53.540Z,744
2022-10-14T12:41:54.495Z,740
2022-10-14T12:42:55.050Z,740
2022-10-14T12:43:58.154Z,720
2022-10-14T12:44:56.097Z,700
2022-10-14T12:45:56.025Z,676
2022-10-14T12:46:56.989Z,656
2022-10-14T12:47:57.180Z,640
2022-10-14T12:48:58.402Z,628
2022-10-14T12:49:58.034Z,620
2022-10-14T12:50:58.361Z,596
2022-10-14T12:51:59.870Z,580
2022-10-14T12:52:59.896Z,576
2022-10-14T12:54:01.120Z,576
2022-10-14T12:55:01.391Z,584
2022-10-14T12:56:01.615Z,592
2022-10-14T12:57:01.858Z,620
2022-10-14T12:58:02.065Z,652
2022-10-14T12:59:02.757Z,676
2022-10-14T13:00:04.027Z,688
2022-10-14T13:01:04.375Z,700
2022-10-14T13:02:06.236Z,708
2022-10-14T13:03:05.786Z,728
2022-10-14T13:04:06.487Z,764
2022-10-14T13:05:07.446Z,796
2022-10-14T13:06:08.476Z,812
2022-10-14T13:07:44.606Z,848
2022-10-14T13:08:10.382Z,860
2022-10-14T13:09:10.584Z,880
2022-10-14T13:10:11.521Z,888
2022-10-14T13:11:12.137Z,880
2022-10-14T13:12:13.379Z,848
2022-10-14T13:13:13.825Z,812
2022-10-14T13:14:13.453Z,788
2022-10-14T13:15:14.386Z,792
2022-10-14T13:16:14.435Z,800
2022-10-14T13:17:21.447Z,832
2022-10-14T13:18:17.095Z,852
2022-10-14T13:19:17.316Z,860
2022-10-14T13:20:17.222Z,880
2022-10-14T13:21:17.427Z,900
2022-10-14T13:22:18.539Z,896
2022-10-14T13:23:18.566Z,864
2022-10-14T13:24:18.321Z,812
2022-10-14T13:25:19.625Z,752
2022-10-14T13:26:19.854Z,700
2022-10-14T13:27:20.800Z,648
2022-10-14T13:28:20.298Z,592
2022-10-14T13:29:21.075Z,536
2022-10-14T13:30:21.270Z,496
2022-10-14T13:31:22.381Z,472
2022-10-14T13:32:31.400Z,452
2022-10-14T13:33:23.250Z,440
2022-10-14T13:34:23.176Z,428
2022-10-14T13:35:24.104Z,424
2022-10-14T13:36:25.545Z,436
2022-10-14T13:37:25.562Z,440
2022-10-14T13:38:26.816Z,440
2022-10-14T13:39:27.021Z,428
2022-10-14T13:40:28.007Z,428
2022-10-14T13:41:36.459Z,448
2022-10-14T13:42:29.903Z,468
2022-10-14T13:43:29.303Z,488
2022-10-14T13:44:29.217Z,500
2022-10-14T13:45:29.405Z,508
2022-10-14T13:46:29.502Z,508
2022-10-14T13:47:31.113Z,496
2022-10-14T13:48:31.632Z,488
2022-10-14T13:49:31.593Z,476
2022-10-14T13:50:32.224Z,456
2022-10-14T13:51:47.443Z,432
2022-10-14T13:52:34.623Z,432
2022-10-14T13:53:35.249Z,448
2022-10-14T13:54:35.436Z,472
2022-10-14T13:55:36.365Z,480
2022-10-14T13:56:37.817Z,480
2022-10-14T13:58:24.412Z,500
2022-10-14T13:58:41.446Z,500
2022-10-14T14:00:47.057Z,504
2022-10-14T14:01:03.668Z,504
2022-10-14T14:02:04.434Z,504
2022-10-14T14:03:09.555Z,512
2022-10-14T14:04:06.302Z,524
2022-10-14T14:05:07.271Z,528
2022-10-14T14:06:07.757Z,536
2022-10-14T14:08:57.877Z,596
2022-10-14T14:09:15.129Z,600
2022-10-14T14:10:14.769Z,620
2022-10-14T14:11:27.834Z,628